Usol'ye-Sibirskoye, Russia
Current Conditions -  °F | °C
As of 6:00 PM on Sunday 25 Jan 2015 (Local Time) from UIII Reporting Station
Clear Clear  
Wind Chill: -4°   Ceiling: Unl
Heat Index: -4°   Visibility: 6mi
Dew Point: -15°   Wind: 2mph
Humidity: 60%   Direction: 160°SSE
Pressure: 30.68"   Gusts: NA
Location:  52.45°N, 103.39°E
Report Text: UIII 251000Z 16001MPS CAVOK M20/M26 Q1039 NOSIG RMK QFE734/097830820350
Loading
Personal Weather Stations






























Interactive Weather Map New forecast layout! Learn more

10-Day Weather Forecast

Advertisements
Track Severe Weather on mobile